Time;durP1;ratioP1;P1;durP2;ratioP2;P2;SDS_P1;SDS_P2;PMS_P1;PMS_P2;Temp;Humidity;BMP_temperature;BMP_pressure;BME280_temperature;BME280_humidity;BME280_pressure;Samples;Min_cycle;Max_cycle;Signal;HPM_P1;HPM_P2
2023/03/03 00:00:45;;;;;;;34.42;18.15;;;;;;;-2.00;100.00;97439.22;5065886;28;20135;-52
2023/03/03 00:03:16;;;;;;;39.22;18.48;;;;;;;-2.04;100.00;97445.88;5065196;28;20123;-53
2023/03/03 00:05:42;;;;;;;35.03;18.85;;;;;;;-2.02;100.00;97451.84;5071616;28;20701;-49
2023/03/03 00:08:09;;;;;;;35.97;18.35;;;;;;;-2.07;100.00;97452.34;5069954;28;20128;-49
2023/03/03 00:10:37;;;;;;;38.80;17.55;;;;;;;-2.16;100.00;97450.72;5063977;28;20037;-48
2023/03/03 00:13:11;;;;;;;32.22;15.68;;;;;;;-2.15;100.00;97452.34;5064193;28;20707;-54
2023/03/03 00:15:38;;;;;;;34.10;17.50;;;;;;;-2.21;100.00;97453.88;5070152;28;20369;-53
2023/03/03 00:18:17;;;;;;;39.83;17.40;;;;;;;-2.28;100.00;97444.94;5065237;28;20141;-53
2023/03/03 00:20:51;;;;;;;38.50;18.38;;;;;;;-2.23;100.00;97454.03;5070910;28;20048;-54
2023/03/03 00:23:37;;;;;;;35.42;17.10;;;;;;;-2.13;100.00;97451.19;5065404;28;21341;-52
2023/03/03 00:26:20;;;;;;;32.88;16.10;;;;;;;-2.31;100.00;97453.22;5072700;28;20037;-52
2023/03/03 00:28:48;;;;;;;33.15;16.00;;;;;;;-2.23;100.00;97463.81;5069207;28;20040;-54
2023/03/03 00:31:24;;;;;;;37.58;17.95;;;;;;;-2.01;100.00;97459.63;5067671;28;20053;-52
2023/03/03 00:33:53;;;;;;;34.72;19.15;;;;;;;-2.04;100.00;97459.97;5072414;28;20098;-54
2023/03/03 00:36:27;;;;;;;36.08;16.08;;;;;;;-2.28;100.00;97451.03;5069901;28;20159;-51
2023/03/03 00:38:56;;;;;;;38.80;18.60;;;;;;;-2.47;100.00;97459.38;5075018;28;20040;-54
2023/03/03 00:41:26;;;;;;;37.38;18.38;;;;;;;-2.35;100.00;97456.19;5071486;28;20579;-53
2023/03/03 00:43:53;;;;;;;34.92;16.83;;;;;;;-2.46;100.00;97461.00;5076507;28;20044;-53
2023/03/03 00:46:22;;;;;;;35.28;17.02;;;;;;;-2.61;100.00;97459.84;5068205;28;20082;-55
2023/03/03 00:48:50;;;;;;;38.53;17.65;;;;;;;-2.66;100.00;97450.75;5066697;28;20048;-52
2023/03/03 00:51:29;;;;;;;35.35;18.38;;;;;;;-2.69;100.00;97459.03;5070796;28;20042;-50
2023/03/03 00:53:57;;;;;;;39.80;18.20;;;;;;;-2.60;100.00;97447.44;5069326;28;20039;-51
2023/03/03 00:56:23;;;;;;;35.88;17.92;;;;;;;-2.77;100.00;97458.03;5072125;28;20036;-49
2023/03/03 00:58:50;;;;;;;38.17;17.92;;;;;;;-2.71;100.00;97450.41;5064533;28;20048;-54
2023/03/03 01:01:19;;;;;;;38.63;17.75;;;;;;;-2.77;100.00;97446.59;5067301;28;20055;-55
2023/03/03 01:03:50;;;;;;;33.00;17.05;;;;;;;-2.83;100.00;97444.59;5074479;28;20052;-54
2023/03/03 01:06:16;;;;;;;39.67;18.63;;;;;;;-2.86;100.00;97443.13;5073433;28;20050;-51
2023/03/03 01:08:43;;;;;;;34.58;17.58;;;;;;;-2.87;100.00;97439.63;5077451;28;20203;-53
2023/03/03 01:11:16;;;;;;;38.13;19.77;;;;;;;-2.99;100.00;97438.28;5070758;28;20440;-53
2023/03/03 01:13:46;;;;;;;43.83;19.60;;;;;;;-3.02;100.00;97434.16;5069967;28;20796;-53
2023/03/03 01:16:13;;;;;;;40.38;17.83;;;;;;;-2.99;100.00;97437.47;5066182;28;20132;-53
2023/03/03 01:18:40;;;;;;;38.90;18.00;;;;;;;-2.88;100.00;97430.03;5068646;28;21247;-52
2023/03/03 01:21:08;;;;;;;38.00;18.05;;;;;;;-3.01;100.00;97441.13;5062603;28;20039;-52
2023/03/03 01:23:34;;;;;;;33.67;17.60;;;;;;;-3.01;100.00;97441.13;5068127;28;20503;-53
2023/03/03 01:26:01;;;;;;;39.78;18.60;;;;;;;-2.96;100.00;97437.97;5064590;28;20068;-54
2023/03/03 01:28:28;;;;;;;41.63;18.95;;;;;;;-2.99;100.00;97445.44;5072455;28;20457;-53
2023/03/03 01:30:59;;;;;;;36.95;18.48;;;;;;;-2.72;100.00;97448.75;5066149;28;20101;-53
2023/03/03 01:33:26;;;;;;;36.67;18.27;;;;;;;-2.87;100.00;97444.94;5065953;28;20051;-50
2023/03/03 01:35:53;;;;;;;35.25;18.55;;;;;;;-2.94;100.00;97451.91;5066737;28;20131;-50
2023/03/03 01:38:20;;;;;;;38.83;18.60;;;;;;;-2.96;100.00;97453.88;5068901;28;20047;-51
2023/03/03 01:40:58;;;;;;;40.92;20.00;;;;;;;-2.97;100.00;97454.88;5070431;28;20055;-52
2023/03/03 01:43:30;;;;;;;38.38;18.45;;;;;;;-2.93;100.00;97456.19;5075835;28;20076;-52
2023/03/03 01:45:56;;;;;;;37.88;18.05;;;;;;;-3.03;100.00;97459.00;5068158;28;20697;-51
2023/03/03 01:48:36;;;;;;;36.35;19.20;;;;;;;-3.01;100.00;97446.44;5063117;28;20060;-51
2023/03/03 01:51:17;;;;;;;37.65;18.35;;;;;;;-3.02;100.00;97444.75;5072361;28;20123;-52
2023/03/03 01:53:48;;;;;;;38.17;18.20;;;;;;;-3.09;100.00;97449.06;5064915;28;20616;-51
2023/03/03 01:56:15;;;;;;;;;;;;;;;-3.07;100.00;97431.16;5070008;28;22365;-51
2023/03/03 01:58:45;;;;;;;36.97;15.93;;;;;;;-3.05;100.00;97428.34;5065361;28;19920;-51
2023/03/03 02:01:19;;;;;;;37.50;16.63;;;;;;;-2.96;100.00;97429.19;5068505;28;20041;-55
2023/03/03 02:03:47;;;;;;;40.20;17.08;;;;;;;-2.76;100.00;97424.41;5062320;28;20068;-54
2023/03/03 02:06:18;;;;;;;37.63;18.02;;;;;;;-2.46;100.00;97427.38;5067768;28;20044;-52
2023/03/03 02:08:58;;;;;;;41.88;19.30;;;;;;;-2.46;100.00;97414.13;5061018;28;20056;-54
2023/03/03 02:11:28;;;;;;;38.40;18.80;;;;;;;-2.69;100.00;97417.44;5073499;28;20093;-55
2023/03/03 02:13:55;;;;;;;40.13;18.45;;;;;;;-2.47;100.00;97419.59;5067852;28;20037;-53
2023/03/03 02:16:21;;;;;;;37.50;17.27;;;;;;;-2.28;100.00;97416.56;5070022;28;20040;-55
2023/03/03 02:18:48;;;;;;;37.97;17.77;;;;;;;-2.17;100.00;97411.91;5066089;28;20629;-53
2023/03/03 02:21:19;;;;;;;36.55;17.80;;;;;;;-2.24;100.00;97425.03;5068618;28;20052;-53
2023/03/03 02:23:57;;;;;;;37.42;17.92;;;;;;;-2.15;100.00;97412.56;5062248;28;20058;-57
2023/03/03 02:26:30;;;;;;;37.00;17.73;;;;;;;-2.14;100.00;97414.25;5075332;28;20054;-53
2023/03/03 02:29:02;;;;;;;38.22;17.23;;;;;;;-2.16;100.00;97405.59;5068642;28;20047;-52
2023/03/03 02:31:30;;;;;;;37.95;17.88;;;;;;;-2.23;100.00;97408.94;5072581;28;20039;-55
2023/03/03 02:33:58;;;;;;;38.90;16.08;;;;;;;-2.12;100.00;97410.41;5061896;28;20040;-54
2023/03/03 02:36:30;;;;;;;35.97;16.40;;;;;;;-1.98;100.00;97416.81;5070751;28;20564;-54
2023/03/03 02:39:06;;;;;;;37.85;17.85;;;;;;;-1.88;100.00;97413.16;5059364;28;20037;-53
2023/03/03 02:41:52;;;;;;;38.45;17.08;;;;;;;-2.00;100.00;97410.88;5066637;28;20032;-55
2023/03/03 02:44:21;;;;;;;34.15;15.65;;;;;;;-1.95;100.00;97410.38;5064355;28;20422;-55
2023/03/03 02:46:49;;;;;;;36.67;16.75;;;;;;;-2.00;100.00;97410.03;5066832;28;20298;-54
2023/03/03 02:49:19;;;;;;;37.78;19.02;;;;;;;-2.00;100.00;97415.34;5067422;28;20052;-56
2023/03/03 02:51:46;;;;;;;34.08;16.05;;;;;;;-2.12;100.00;97417.53;5067289;28;20029;-55
2023/03/03 02:54:14;;;;;;;37.67;17.55;;;;;;;-2.27;100.00;97423.53;5064709;28;20773;-55
2023/03/03 02:56:41;;;;;;;33.75;16.88;;;;;;;-2.19;100.00;97435.13;5057646;28;21678;-54
2023/03/03 02:59:08;;;;;;;37.97;17.23;;;;;;;-2.10;100.00;97434.13;5072689;28;20093;-54
2023/03/03 03:01:40;;;;;;;38.38;17.35;;;;;;;-2.08;100.00;97426.81;5087860;27;20044;-57
2023/03/03 03:04:23;;;;;;;38.42;16.08;;;;;;;-2.31;100.00;97432.00;5071145;28;20842;-58
2023/03/03 03:06:51;;;;;;;35.45;17.33;;;;;;;-2.42;100.00;97438.47;5072002;28;20040;-55
2023/03/03 03:09:20;;;;;;;33.10;17.23;;;;;;;-2.75;100.00;97436.66;5074512;28;20097;-56
2023/03/03 03:11:48;;;;;;;36.70;18.55;;;;;;;-3.14;100.00;97436.28;5076295;28;20533;-54
2023/03/03 03:14:19;;;;;;;39.22;16.67;;;;;;;-3.23;100.00;97445.22;5087706;27;20139;-53
2023/03/03 03:16:45;;;;;;;40.22;18.63;;;;;;;-3.31;100.00;97437.25;5069514;28;20736;-53
2023/03/03 03:19:12;;;;;;;37.75;17.73;;;;;;;-3.22;100.00;97433.63;5073784;28;20434;-54
2023/03/03 03:21:39;;;;;;;36.80;17.52;;;;;;;-3.22;100.00;97433.63;5069339;28;20033;-54
2023/03/03 03:24:07;;;;;;;42.05;18.90;;;;;;;-3.18;100.00;97436.75;5074278;28;20051;-53
2023/03/03 03:26:35;;;;;;;42.78;18.27;;;;;;;-3.41;100.00;97437.38;5066456;28;20039;-55
2023/03/03 03:29:02;;;;;;;36.72;16.83;;;;;;;-3.43;100.00;97426.94;5074971;28;20502;-52
2023/03/03 03:31:29;;;;;;;30.50;15.15;;;;;;;-3.45;100.00;97430.75;5065298;28;20045;-53
2023/03/03 03:33:56;;;;;;;39.13;17.67;;;;;;;-3.31;100.00;97440.69;5068732;28;20142;-56
2023/03/03 03:36:23;;;;;;;37.88;17.35;;;;;;;-3.20;100.00;97442.25;5068989;28;20044;-54
2023/03/03 03:38:51;;;;;;;40.75;19.00;;;;;;;-3.24;100.00;97440.06;5075286;28;20113;-52
2023/03/03 03:41:17;;;;;;;39.95;19.45;;;;;;;-3.07;100.00;97441.75;5079604;28;20820;-53
2023/03/03 03:43:44;;;;;;;46.40;19.67;;;;;;;-3.01;100.00;97443.78;5073547;28;20127;-54
2023/03/03 03:46:11;;;;;;;41.97;19.42;;;;;;;-2.98;100.00;97444.44;5071076;28;20040;-56
2023/03/03 03:48:38;;;;;;;43.70;18.40;;;;;;;-2.65;100.00;97436.50;5074394;28;20044;-56
2023/03/03 03:51:08;;;;;;;41.28;19.20;;;;;;;-2.50;100.00;97442.78;5071329;28;20442;-53
2023/03/03 03:53:35;;;;;;;40.75;18.00;;;;;;;-2.56;100.00;97438.16;5067901;28;20041;-54
2023/03/03 03:56:01;;;;;;;46.60;20.50;;;;;;;-2.58;100.00;97434.81;5071593;28;20036;-56
2023/03/03 03:58:29;;;;;;;43.03;17.85;;;;;;;-2.53;100.00;97437.81;5067198;28;20051;-56
2023/03/03 04:01:05;;;;;;;43.92;21.63;;;;;;;-2.51;100.00;97435.81;5066632;28;20567;-57
2023/03/03 04:03:34;;;;;;;48.33;22.05;;;;;;;-2.44;100.00;97430.69;5064993;28;20044;-55
2023/03/03 04:06:04;;;;;;;42.95;19.58;;;;;;;-2.37;100.00;97434.31;5064968;28;20044;-53
2023/03/03 04:08:32;;;;;;;43.55;20.38;;;;;;;-2.27;100.00;97436.81;5066766;28;20619;-57
2023/03/03 04:10:59;;;;;;;47.53;20.02;;;;;;;-2.20;100.00;97431.66;5069222;28;20076;-57
2023/03/03 04:13:27;;;;;;;44.75;21.17;;;;;;;-2.12;100.00;97430.81;5068707;28;20032;-51
2023/03/03 04:15:54;;;;;;;41.55;19.80;;;;;;;-2.03;100.00;97426.31;5068345;28;20093;-55
2023/03/03 04:18:21;;;;;;;38.70;20.63;;;;;;;-2.01;100.00;97427.78;5069702;28;20058;-53
2023/03/03 04:20:48;;;;;;;45.95;20.92;;;;;;;-1.91;100.00;97429.41;5067993;28;20041;-56
2023/03/03 04:23:15;;;;;;;49.33;20.60;;;;;;;-1.85;100.00;97431.38;5066661;28;20720;-52
2023/03/03 04:25:42;;;;;;;46.72;21.27;;;;;;;-1.73;100.00;97439.81;5069164;28;20048;-52
2023/03/03 04:28:14;;;;;;;42.83;19.23;;;;;;;-1.62;100.00;97442.09;5068383;28;20044;-53
2023/03/03 04:30:41;;;;;;;42.45;20.60;;;;;;;-1.64;100.00;97440.59;5067285;28;20556;-53
2023/03/03 04:33:08;;;;;;;41.70;20.10;;;;;;;-1.53;100.00;97439.41;5069749;28;20032;-52
2023/03/03 04:35:37;;;;;;;44.03;18.13;;;;;;;-1.51;100.00;97445.38;5069772;28;20180;-51
2023/03/03 04:38:04;;;;;;;44.05;21.05;;;;;;;-1.43;100.00;97434.72;5075316;28;20047;-53
2023/03/03 04:40:32;;;;;;;45.03;19.17;;;;;;;-1.39;100.00;97435.19;5073335;28;20089;-54
2023/03/03 04:43:00;;;;;;;45.47;20.38;;;;;;;-1.41;100.00;97427.38;5071905;28;20085;-57
2023/03/03 04:45:26;;;;;;;41.80;21.05;;;;;;;-1.37;100.00;97443.81;5072086;28;20036;-52
2023/03/03 04:47:53;;;;;;;38.42;17.73;;;;;;;-1.24;100.00;97445.91;5075479;28;20044;-51
2023/03/03 04:50:21;;;;;;;42.70;19.90;;;;;;;-1.18;100.00;97453.19;5072238;28;20502;-55
2023/03/03 04:52:47;;;;;;;40.05;19.15;;;;;;;-1.20;100.00;97448.06;5079527;28;20039;-54
2023/03/03 04:55:15;;;;;;;39.72;19.70;;;;;;;-1.14;100.00;97443.03;5074344;28;20119;-54
2023/03/03 04:57:44;;;;;;;42.78;19.85;;;;;;;-1.16;100.00;97445.88;5072401;28;20123;-56
2023/03/03 05:00:12;;;;;;;48.97;20.83;;;;;;;-0.95;100.00;97450.53;5075585;28;20040;-52
2023/03/03 05:02:40;;;;;;;44.83;19.77;;;;;;;-1.02;100.00;97454.09;5076814;28;20561;-55
2023/03/03 05:05:12;;;;;;;42.65;18.70;;;;;;;-0.96;100.00;97459.53;5080171;28;20044;-57
2023/03/03 05:07:39;;;;;;;40.65;19.45;;;;;;;-1.07;100.00;97454.63;5084609;28;20101;-53
2023/03/03 05:10:07;;;;;;;46.95;19.98;;;;;;;-0.99;100.00;97448.44;5082342;28;20067;-53
2023/03/03 05:12:33;;;;;;;46.53;19.33;;;;;;;-0.94;100.00;97454.88;5079208;28;20123;-52
2023/03/03 05:15:00;;;;;;;44.63;20.10;;;;;;;-0.76;100.00;97456.41;5082782;28;20044;-53
2023/03/03 05:17:26;;;;;;;42.60;19.42;;;;;;;-0.74;100.00;97456.25;5082365;28;20048;-53
2023/03/03 05:19:53;;;;;;;45.90;21.95;;;;;;;-0.90;100.00;97455.34;5074829;28;20115;-56
2023/03/03 05:22:19;;;;;;;36.58;18.02;;;;;;;-0.81;100.00;97450.81;5079720;28;20048;-55
2023/03/03 05:24:48;;;;;;;43.85;20.65;;;;;;;-0.68;100.00;97456.34;5082649;28;20061;-55
2023/03/03 05:27:15;;;;;;;44.78;19.92;;;;;;;-0.62;100.00;97456.66;5079496;28;20044;-52
2023/03/03 05:29:41;;;;;;;41.10;19.63;;;;;;;-0.62;100.00;97457.47;5066359;28;20139;-53
2023/03/03 05:32:08;;;;;;;41.00;19.05;;;;;;;-0.57;100.00;97456.94;5072833;28;20068;-53
2023/03/03 05:34:34;;;;;;;46.85;21.00;;;;;;;-0.45;100.00;97458.16;5075124;28;20051;-54
2023/03/03 05:37:02;;;;;;;46.92;21.55;;;;;;;-0.26;100.00;97463.97;5074503;28;20044;-55
2023/03/03 05:39:29;;;;;;;40.15;19.48;;;;;;;-0.14;100.00;97470.53;5076773;28;20496;-55
2023/03/03 05:41:55;;;;;;;43.13;20.85;;;;;;;-0.03;100.00;97465.78;5079185;28;20044;-53
2023/03/03 05:44:22;;;;;;;39.25;18.98;;;;;;;-0.01;100.00;97477.91;5071675;28;20041;-55
2023/03/03 05:46:48;;;;;;;41.33;19.85;;;;;;;-0.10;100.00;97480.81;5075017;28;20522;-56
2023/03/03 05:49:15;;;;;;;45.28;18.30;;;;;;;-0.19;100.00;97486.22;5070546;28;20046;-53
2023/03/03 05:51:41;;;;;;;43.92;19.98;;;;;;;-0.24;100.00;97483.28;5076657;28;20056;-54
2023/03/03 05:54:08;;;;;;;43.25;20.13;;;;;;;-0.31;100.00;97493.81;5080671;28;20114;-56
2023/03/03 05:56:34;;;;;;;39.72;19.48;;;;;;;-0.32;100.00;97486.84;5080221;28;20128;-55
2023/03/03 05:59:01;;;;;;;44.83;20.80;;;;;;;-0.30;100.00;97486.63;5072532;28;20056;-56
2023/03/03 06:01:28;;;;;;;46.60;20.33;;;;;;;-0.25;100.00;97488.78;5074045;28;20510;-56
2023/03/03 06:03:54;;;;;;;43.20;20.58;;;;;;;-0.36;100.00;97487.38;5072439;28;20119;-52
2023/03/03 06:06:21;;;;;;;44.10;21.40;;;;;;;-0.22;100.00;97491.06;5075323;28;20040;-53
2023/03/03 06:08:47;;;;;;;41.10;19.38;;;;;;;-0.10;100.00;97494.13;5073356;28;20454;-55
2023/03/03 06:11:15;;;;;;;42.25;19.70;;;;;;;-0.02;100.00;97502.03;5076886;28;20392;-55
2023/03/03 06:13:42;;;;;;;43.00;20.65;;;;;;;0.08;100.00;97502.59;5074811;28;20044;-53
2023/03/03 06:16:08;;;;;;;41.78;19.77;;;;;;;0.10;100.00;97494.44;5073823;28;20032;-58
2023/03/03 06:18:35;;;;;;;40.03;18.35;;;;;;;0.10;100.00;97500.59;5078689;28;20722;-51
2023/03/03 06:21:02;;;;;;;43.28;20.60;;;;;;;0.08;100.00;97502.59;5075117;28;20032;-54
2023/03/03 06:23:28;;;;;;;45.67;22.77;;;;;;;0.10;100.00;97505.91;5072634;28;20032;-54
2023/03/03 06:25:55;;;;;;;40.95;20.55;;;;;;;-0.03;100.00;97509.19;5068594;28;20044;-53
2023/03/03 06:28:23;;;;;;;45.30;19.67;;;;;;;-0.07;100.00;97513.22;5077179;28;20740;-55
2023/03/03 06:30:54;;;;;;;40.72;19.15;;;;;;;-0.18;100.00;97506.50;5071876;28;20044;-56
2023/03/03 06:33:21;;;;;;;35.93;20.10;;;;;;;-0.19;100.00;97507.50;5069743;28;20127;-56
2023/03/03 06:35:50;;;;;;;45.25;21.17;;;;;;;-0.15;100.00;97516.78;5078551;28;20033;-56
2023/03/03 06:38:17;;;;;;;42.70;18.63;;;;;;;-0.14;100.00;97522.94;5069282;28;20082;-57
2023/03/03 06:40:44;;;;;;;50.92;22.25;;;;;;;-0.17;100.00;97521.47;5069644;28;20125;-57
2023/03/03 06:43:11;;;;;;;58.17;25.33;;;;;;;-0.09;100.00;97531.22;5065904;28;20085;-54
2023/03/03 06:45:37;;;;;;;50.20;24.80;;;;;;;-0.06;100.00;97527.38;5072989;28;20152;-54
2023/03/03 06:48:04;;;;;;;47.60;22.23;;;;;;;0.02;100.00;97529.97;5070418;28;20051;-56
2023/03/03 06:50:31;;;;;;;43.42;22.52;;;;;;;0.06;100.00;97528.59;5071075;28;20075;-56
2023/03/03 06:53:09;;;;;;;44.88;23.70;;;;;;;0.16;100.00;97527.50;5071038;28;20036;-58
2023/03/03 06:55:36;;;;;;;41.50;20.80;;;;;;;0.44;100.00;97535.69;5070763;28;20048;-53
2023/03/03 06:58:15;;;;;;;43.28;19.33;;;;;;;0.52;100.00;97542.81;5070098;28;20775;-57
2023/03/03 07:00:43;;;;;;;53.17;26.52;;;;;;;0.44;100.00;97533.03;5066904;28;20123;-52
2023/03/03 07:03:14;;;;;;;56.97;29.02;;;;;;;0.63;100.00;97536.19;5067483;28;20778;-56
2023/03/03 07:05:42;;;;;;;51.30;23.90;;;;;;;0.55;99.99;97537.09;5069638;28;20621;-56
2023/03/03 07:08:16;;;;;;;55.15;22.92;;;;;;;0.60;100.00;97534.72;5081915;28;20059;-55
2023/03/03 07:10:43;;;;;;;48.17;20.75;;;;;;;0.66;100.00;97545.66;5075765;28;20036;-55
2023/03/03 07:13:25;;;;;;;42.13;22.15;;;;;;;0.73;100.00;97554.53;5079079;28;20079;-54
2023/03/03 07:15:53;;;;;;;43.83;22.10;;;;;;;0.70;98.73;97544.28;5072069;28;20579;-54
2023/03/03 07:18:23;;;;;;;49.15;24.50;;;;;;;0.76;99.06;97557.69;5067864;28;20123;-53
2023/03/03 07:20:50;;;;;;;45.55;22.85;;;;;;;0.83;98.64;97549.78;5070360;28;20455;-51
2023/03/03 07:23:41;;;;;;;43.42;20.90;;;;;;;0.94;97.65;97555.63;5074359;28;20036;-56
2023/03/03 07:26:11;;;;;;;46.72;21.33;;;;;;;0.83;96.69;97551.59;5072988;28;20058;-51
2023/03/03 07:28:41;;;;;;;40.88;21.67;;;;;;;0.70;98.40;97552.25;5070353;28;20377;-54
2023/03/03 07:31:38;;;;;;;49.08;24.20;;;;;;;0.82;99.49;97542.78;5076005;28;20123;-53
2023/03/03 07:34:22;;;;;;;43.78;22.95;;;;;;;0.92;96.82;97555.00;5075974;28;20085;-56
2023/03/03 07:36:52;;;;;;;41.20;20.40;;;;;;;1.09;97.26;97548.47;5072123;28;20044;-57
2023/03/03 07:39:37;;;;;;;38.40;18.90;;;;;;;1.17;93.64;97545.69;5072596;28;20143;-55
2023/03/03 07:42:26;;;;;;;48.33;21.38;;;;;;;1.31;92.63;97553.84;5072526;28;20063;-53
2023/03/03 07:45:20;;;;;;;40.20;19.75;;;;;;;1.47;88.88;97557.31;5072856;28;20105;-56
2023/03/03 07:47:47;;;;;;;34.45;17.48;;;;;;;1.55;88.09;97552.66;5078046;28;20545;-56
2023/03/03 07:50:23;;;;;;;35.30;18.83;;;;;;;1.42;87.80;97561.38;5072347;28;20578;-56
2023/03/03 07:52:59;;;;;;;35.20;17.77;;;;;;;1.37;86.47;97558.41;5071879;28;20036;-55
2023/03/03 07:55:34;;;;;;;32.92;15.30;;;;;;;1.55;83.96;97562.53;5077668;28;20569;-56
2023/03/03 07:58:09;;;;;;;30.55;15.13;;;;;;;1.65;82.39;97571.03;5077856;28;20067;-56
2023/03/03 08:00:39;;;;;;;32.58;16.08;;;;;;;1.84;81.33;97570.59;5067793;28;20037;-56
2023/03/03 08:03:16;;;;;;;33.33;16.65;;;;;;;1.99;81.72;97570.53;5078218;28;20048;-56
2023/03/03 08:05:46;;;;;;;28.30;15.93;;;;;;;2.07;80.55;97575.75;5074666;28;20047;-57
2023/03/03 08:08:41;;;;;;;27.05;13.57;;;;;;;2.09;78.08;97579.03;5083466;28;20047;-56
2023/03/03 08:11:08;;;;;;;30.58;14.48;;;;;;;2.26;77.27;97581.44;5083637;28;20082;-56
2023/03/03 08:13:37;;;;;;;31.08;15.48;;;;;;;2.24;76.26;97581.63;5074215;28;20032;-53
2023/03/03 08:16:09;;;;;;;27.45;13.98;;;;;;;2.34;77.58;97586.66;5078747;28;20098;-54
2023/03/03 08:18:41;;;;;;;32.10;15.57;;;;;;;2.47;76.17;97584.06;5069027;28;20044;-55
2023/03/03 08:21:13;;;;;;;32.75;18.50;;;;;;;2.58;76.67;97574.69;5077983;28;20680;-52
2023/03/03 08:23:40;;;;;;;37.00;16.13;;;;;;;2.68;75.95;97582.38;5076717;28;20044;-53
2023/03/03 08:26:07;;;;;;;36.03;16.80;;;;;;;2.57;75.84;97578.38;5071139;28;20044;-51
2023/03/03 08:28:34;;;;;;;25.85;14.05;;;;;;;2.57;75.00;97578.38;5085448;28;20499;-53
2023/03/03 08:31:00;;;;;;;26.95;14.43;;;;;;;2.55;75.63;97579.59;5082060;28;20040;-56
2023/03/03 08:33:44;;;;;;;26.13;13.70;;;;;;;2.49;75.98;97575.03;5073225;28;20067;-50
2023/03/03 08:36:11;;;;;;;29.65;14.48;;;;;;;2.40;76.20;97574.38;5071810;28;20153;-55
2023/03/03 08:38:38;;;;;;;25.40;14.02;;;;;;;2.45;76.14;97575.44;5074719;28;20094;-55
2023/03/03 08:41:05;;;;;;;26.05;13.98;;;;;;;2.23;75.81;97566.63;5078308;28;20054;-56
2023/03/03 08:43:31;;;;;;;28.45;13.77;;;;;;;1.98;75.78;97566.22;5073283;28;20063;-55
2023/03/03 08:46:00;;;;;;;26.70;13.48;;;;;;;2.06;75.90;97571.41;5082743;28;20051;-54
2023/03/03 08:48:28;;;;;;;27.88;13.10;;;;;;;2.11;76.88;97573.50;5079959;28;20052;-53
2023/03/03 08:50:55;;;;;;;30.65;14.10;;;;;;;2.19;76.47;97573.38;5077409;28;20079;-54
2023/03/03 08:53:22;;;;;;;30.13;15.38;;;;;;;2.13;76.90;97577.63;5073532;28;20043;-52
2023/03/03 08:55:49;;;;;;;31.45;14.27;;;;;;;2.24;77.19;97572.81;5071961;28;20050;-53
2023/03/03 08:58:17;;;;;;;35.42;17.58;;;;;;;2.28;77.32;97580.22;5076120;28;20040;-53
2023/03/03 09:00:44;;;;;;;33.08;15.85;;;;;;;2.24;77.62;97580.81;5073297;28;20051;-56
2023/03/03 09:03:14;;;;;;;37.92;17.75;;;;;;;2.26;78.03;97579.59;5075630;28;20649;-56
2023/03/03 09:05:41;;;;;;;31.73;15.75;;;;;;;2.40;78.30;97591.19;5074303;28;20462;-57
2023/03/03 09:08:09;;;;;;;30.33;15.32;;;;;;;2.46;77.22;97593.13;5085079;28;20552;-54
2023/03/03 09:10:36;;;;;;;32.72;15.90;;;;;;;2.63;77.08;97594.66;5078538;28;20036;-54
2023/03/03 09:13:12;;;;;;;31.20;16.42;;;;;;;2.68;77.04;97598.41;5072763;28;20036;-57
2023/03/03 09:15:39;;;;;;;32.08;15.82;;;;;;;2.77;75.61;97600.94;5075374;28;20575;-55
2023/03/03 09:18:19;;;;;;;32.30;15.27;;;;;;;2.78;77.02;97608.75;5077812;28;20044;-52
2023/03/03 09:20:53;;;;;;;33.45;16.38;;;;;;;3.01;75.95;97609.50;5079620;28;20499;-55
2023/03/03 09:23:22;;;;;;;38.13;16.52;;;;;;;3.06;76.34;97607.06;5072760;28;20048;-55
2023/03/03 09:25:50;;;;;;;36.28;15.88;;;;;;;3.10;75.85;97609.13;5069535;28;20127;-56
2023/03/03 09:28:31;;;;;;;28.42;15.10;;;;;;;3.24;75.54;97610.03;5063911;28;20072;-57
2023/03/03 09:31:00;;;;;;;35.35;15.65;;;;;;;3.18;74.43;97620.72;5075779;28;20032;-57
2023/03/03 09:33:39;;;;;;;26.55;15.55;;;;;;;3.22;74.30;97622.81;5076250;28;20036;-54
2023/03/03 09:36:36;;;;;;;28.88;15.68;;;;;;;3.20;73.13;97622.16;5070456;28;20048;-56
2023/03/03 09:39:24;;;;;;;29.55;14.15;;;;;;;3.21;73.38;97617.66;5070188;28;20714;-55
2023/03/03 09:42:25;;;;;;;31.33;16.73;;;;;;;3.25;73.71;97616.22;5074750;28;20035;-57
2023/03/03 09:45:19;;;;;;;33.15;16.17;;;;;;;3.34;74.35;97615.03;5073301;28;20046;-56
2023/03/03 09:47:54;;;;;;;31.27;15.77;;;;;;;3.27;73.10;97606.13;5065349;28;20037;-54
2023/03/03 09:50:45;;;;;;;29.77;15.77;;;;;;;3.30;72.94;97605.75;5075722;28;20101;-56
2023/03/03 09:53:36;;;;;;;26.33;14.13;;;;;;;3.49;72.61;97609.53;5072216;28;20534;-57
2023/03/03 09:56:29;;;;;;;28.88;14.10;;;;;;;3.71;71.86;97605.88;5068593;28;20123;-55
2023/03/03 09:59:00;;;;;;;;;;;;;;;3.73;71.23;97615.34;5069587;28;20072;-55
2023/03/03 10:01:52;;;;;;;31.50;14.80;;;;;;;3.75;71.73;97610.63;5069837;28;20011;-56
2023/03/03 10:04:33;;;;;;;28.27;16.58;;;;;;;3.84;70.87;97613.94;5080420;28;20040;-57
2023/03/03 10:07:21;;;;;;;27.80;14.63;;;;;;;4.07;70.62;97618.13;5078366;28;20044;-55
2023/03/03 10:09:57;;;;;;;27.05;13.57;;;;;;;4.28;70.96;97614.44;5078281;28;20040;-57
2023/03/03 10:12:44;;;;;;;28.90;14.68;;;;;;;4.56;70.00;97617.94;5074049;28;20049;-56
2023/03/03 10:15:25;;;;;;;30.05;15.82;;;;;;;4.77;67.12;97616.91;5075628;28;20028;-56
2023/03/03 10:18:15;;;;;;;26.60;14.63;;;;;;;5.02;65.54;97620.78;5077650;28;20052;-56
2023/03/03 10:20:48;;;;;;;29.30;15.32;;;;;;;5.11;63.94;97624.06;5074897;28;20660;-57
2023/03/03 10:23:21;;;;;;;28.75;15.02;;;;;;;4.93;64.34;97620.16;5072467;28;20507;-57
2023/03/03 10:26:07;;;;;;;30.42;15.05;;;;;;;5.18;63.85;97624.88;5072768;28;20036;-55
2023/03/03 10:28:49;;;;;;;25.45;15.57;;;;;;;5.41;62.44;97624.38;5074121;28;20040;-57
2023/03/03 10:31:41;;;;;;;29.73;14.43;;;;;;;5.53;63.07;97621.84;5076155;28;20502;-57
2023/03/03 10:34:26;;;;;;;31.70;16.10;;;;;;;5.54;62.62;97628.88;5071664;28;20123;-55
2023/03/03 10:36:55;;;;;;;29.15;15.05;;;;;;;5.17;64.53;97629.41;5074621;28;20077;-57
2023/03/03 10:39:57;;;;;;;29.35;15.32;;;;;;;5.32;64.81;97628.34;5066318;28;20090;-56
2023/03/03 10:42:35;;;;;;;29.13;16.33;;;;;;;5.16;64.37;97619.69;5024093;28;20787;-55
2023/03/03 10:45:34;;;;;;;31.50;16.02;;;;;;;5.00;64.98;97630.88;5063344;28;20072;-57
2023/03/03 10:48:22;;;;;;;31.58;16.20;;;;;;;5.13;65.19;97630.06;5072754;28;20058;-57
2023/03/03 10:50:57;;;;;;;31.70;15.00;;;;;;;5.28;65.06;97636.00;5074726;28;20046;-57
2023/03/03 10:53:44;;;;;;;30.27;14.95;;;;;;;5.30;64.38;97628.56;5065867;28;20040;-56
2023/03/03 10:56:30;;;;;;;28.02;15.15;;;;;;;5.37;63.60;97622.31;5072008;28;20398;-56
2023/03/03 10:59:30;;;;;;;30.02;16.27;;;;;;;5.64;63.05;97623.03;5069113;28;20126;-57
2023/03/03 11:02:42;;;;;;;27.47;14.73;;;;;;;5.72;62.20;97627.38;5066747;28;20701;-55
2023/03/03 11:05:17;;;;;;;23.73;13.52;;;;;;;5.91;59.43;97630.16;5040999;28;20052;-56
2023/03/03 11:07:50;;;;;;;24.48;13.98;;;;;;;5.66;59.79;97630.88;5075220;28;20519;-57
2023/03/03 11:10:36;;;;;;;24.92;14.63;;;;;;;5.54;60.76;97630.75;5072508;28;20640;-57
2023/03/03 11:13:17;;;;;;;23.02;13.45;;;;;;;5.79;61.07;97628.13;5072978;28;20060;-57
2023/03/03 11:16:08;;;;;;;32.03;14.38;;;;;;;5.97;60.10;97623.94;5070572;28;20049;-56
2023/03/03 11:19:00;;;;;;;27.30;15.05;;;;;;;5.83;60.52;97621.28;5072287;28;20048;-57
2023/03/03 11:21:46;;;;;;;23.08;13.48;;;;;;;5.93;60.77;97634.25;5069892;28;20141;-54
2023/03/03 11:24:25;;;;;;;29.80;14.23;;;;;;;6.17;59.99;97633.75;5075356;28;20064;-56
2023/03/03 11:26:52;;;;;;;25.73;14.93;;;;;;;6.26;60.27;97628.94;5078382;28;20805;-56
2023/03/03 11:29:46;;;;;;;28.52;14.13;;;;;;;6.44;59.54;97630.84;5075224;28;20056;-55
2023/03/03 11:32:22;;;;;;;27.75;13.60;;;;;;;6.56;58.82;97642.56;5072065;28;20134;-58
2023/03/03 11:34:55;;;;;;;26.42;14.93;;;;;;;6.89;59.16;97641.47;5079870;28;20119;-57
2023/03/03 11:37:38;;;;;;;26.25;14.57;;;;;;;6.90;58.27;97632.34;5071135;28;20055;-57
2023/03/03 11:40:16;;;;;;;28.10;15.73;;;;;;;6.87;57.98;97630.09;5077333;28;20044;-56